Golden, Missouri
Current Conditions -  °F | °C
As of 12:15 PM on Saturday 20 Dec 2014 (Local Time) from KFWB Reporting Station
Overcast Overcast  
Wind Chill: 38°   Ceiling: 1300
Heat Index: 41°   Visibility: 8mi
Dew Point: 39°   Wind: 5mph
Humidity: 93%   Direction: 150°SSE
Pressure: 30.2"   Gusts: NA
Location:  36.52°N, 93.65°W
Report Text: KFWB 201815Z AUTO 15004KT 8SM SCT008 OVC013 05/04 A3020 RMK AO2
Loading
Personal Weather Stations






























Interactive Weather Map New forecast layout! Learn more

10-Day Weather Forecast

Advertisements
Track Severe Weather on mobile